sensor_id;sensor_type;location;lat;lon;timestamp;pressure;altitude;pressure_sealevel;temperature;humidity
68928;BME280;56126;54.086;18.796;2024-02-26T00:02:11;100189.11;;;20.61;49.25
68928;BME280;56126;54.086;18.796;2024-02-26T00:04:58;100185.52;;;20.60;49.30
68928;BME280;56126;54.086;18.796;2024-02-26T00:07:45;100181.70;;;20.59;49.21
68928;BME280;56126;54.086;18.796;2024-02-26T00:10:32;100182.84;;;20.59;49.23
68928;BME280;56126;54.086;18.796;2024-02-26T00:13:19;100176.44;;;20.59;49.36
68928;BME280;56126;54.086;18.796;2024-02-26T00:16:07;100174.48;;;20.58;49.31
68928;BME280;56126;54.086;18.796;2024-02-26T00:18:54;100177.28;;;20.58;49.22
68928;BME280;56126;54.086;18.796;2024-02-26T00:21:41;100174.76;;;20.57;49.22
68928;BME280;56126;54.086;18.796;2024-02-26T00:24:29;100176.10;;;20.57;49.16
68928;BME280;56126;54.086;18.796;2024-02-26T00:27:15;100179.45;;;20.56;49.21
68928;BME280;56126;54.086;18.796;2024-02-26T00:30:03;100175.75;;;20.57;49.12
68928;BME280;56126;54.086;18.796;2024-02-26T00:32:50;100176.86;;;20.57;49.19
68928;BME280;56126;54.086;18.796;2024-02-26T00:35:37;100179.84;;;20.56;49.25
68928;BME280;56126;54.086;18.796;2024-02-26T00:38:24;100179.14;;;20.56;49.11
68928;BME280;56126;54.086;18.796;2024-02-26T00:41:11;100179.31;;;20.56;49.09
68928;BME280;56126;54.086;18.796;2024-02-26T00:43:58;100178.80;;;20.56;49.08
68928;BME280;56126;54.086;18.796;2024-02-26T00:46:47;100182.34;;;20.55;49.08
68928;BME280;56126;54.086;18.796;2024-02-26T00:49:34;100184.44;;;20.55;49.14
68928;BME280;56126;54.086;18.796;2024-02-26T00:52:21;100181.52;;;20.55;49.03
68928;BME280;56126;54.086;18.796;2024-02-26T00:55:08;100179.19;;;20.54;48.92
68928;BME280;56126;54.086;18.796;2024-02-26T00:57:55;100175.02;;;20.53;48.81
68928;BME280;56126;54.086;18.796;2024-02-26T01:00:42;100177.46;;;20.53;48.84
68928;BME280;56126;54.086;18.796;2024-02-26T01:03:29;100176.45;;;20.52;48.54
68928;BME280;56126;54.086;18.796;2024-02-26T01:06:16;100173.43;;;20.51;48.40
68928;BME280;56126;54.086;18.796;2024-02-26T01:09:04;100172.80;;;20.50;48.34
68928;BME280;56126;54.086;18.796;2024-02-26T01:11:51;100169.36;;;20.49;48.24
68928;BME280;56126;54.086;18.796;2024-02-26T01:14:38;100170.38;;;20.48;48.08
68928;BME280;56126;54.086;18.796;2024-02-26T01:17:27;100166.93;;;20.48;47.95
68928;BME280;56126;54.086;18.796;2024-02-26T01:20:14;100165.34;;;20.47;47.92
68928;BME280;56126;54.086;18.796;2024-02-26T01:23:01;100160.44;;;20.47;47.70
68928;BME280;56126;54.086;18.796;2024-02-26T01:25:49;100162.48;;;20.46;47.65
68928;BME280;56126;54.086;18.796;2024-02-26T01:28:36;100158.47;;;20.46;47.45
68928;BME280;56126;54.086;18.796;2024-02-26T01:31:23;100159.41;;;20.46;47.44
68928;BME280;56126;54.086;18.796;2024-02-26T01:34:10;100162.96;;;20.45;47.40
68928;BME280;56126;54.086;18.796;2024-02-26T01:36:57;100161.34;;;20.45;47.26
68928;BME280;56126;54.086;18.796;2024-02-26T01:39:44;100160.27;;;20.45;47.17
68928;BME280;56126;54.086;18.796;2024-02-26T01:42:32;100168.63;;;20.44;47.08
68928;BME280;56126;54.086;18.796;2024-02-26T01:45:19;100166.83;;;20.44;46.98
68928;BME280;56126;54.086;18.796;2024-02-26T01:48:12;100170.14;;;20.44;47.00
68928;BME280;56126;54.086;18.796;2024-02-26T01:50:59;100172.20;;;20.44;46.84
68928;BME280;56126;54.086;18.796;2024-02-26T01:53:46;100174.70;;;20.43;46.76
68928;BME280;56126;54.086;18.796;2024-02-26T01:56:35;100173.83;;;20.42;46.72
68928;BME280;56126;54.086;18.796;2024-02-26T01:59:23;100172.21;;;20.42;46.67
68928;BME280;56126;54.086;18.796;2024-02-26T02:02:11;100175.63;;;20.41;46.50
68928;BME280;56126;54.086;18.796;2024-02-26T02:05:00;100174.59;;;20.40;46.35
68928;BME280;56126;54.086;18.796;2024-02-26T02:07:48;100174.28;;;20.40;46.49
68928;BME280;56126;54.086;18.796;2024-02-26T02:10:36;100174.44;;;20.38;46.29
68928;BME280;56126;54.086;18.796;2024-02-26T02:13:24;100175.65;;;20.37;46.28
68928;BME280;56126;54.086;18.796;2024-02-26T02:16:12;100181.44;;;20.37;46.22
68928;BME280;56126;54.086;18.796;2024-02-26T02:18:59;100181.00;;;20.35;46.12
68928;BME280;56126;54.086;18.796;2024-02-26T02:21:46;100182.92;;;20.35;46.08
68928;BME280;56126;54.086;18.796;2024-02-26T02:24:33;100186.78;;;20.35;46.01
68928;BME280;56126;54.086;18.796;2024-02-26T02:27:20;100179.51;;;20.34;45.87
68928;BME280;56126;54.086;18.796;2024-02-26T02:30:08;100178.50;;;20.33;45.75
68928;BME280;56126;54.086;18.796;2024-02-26T02:32:57;100176.10;;;20.33;45.80
68928;BME280;56126;54.086;18.796;2024-02-26T02:35:48;100180.16;;;20.33;45.68
68928;BME280;56126;54.086;18.796;2024-02-26T02:38:48;100184.85;;;20.32;45.61
68928;BME280;56126;54.086;18.796;2024-02-26T02:41:37;100191.89;;;20.32;45.65
68928;BME280;56126;54.086;18.796;2024-02-26T02:44:24;100194.39;;;20.31;45.47
68928;BME280;56126;54.086;18.796;2024-02-26T02:47:11;100193.41;;;20.30;45.44
68928;BME280;56126;54.086;18.796;2024-02-26T02:49:58;100195.17;;;20.29;45.34
68928;BME280;56126;54.086;18.796;2024-02-26T02:52:45;100194.52;;;20.28;45.39
68928;BME280;56126;54.086;18.796;2024-02-26T02:55:32;100193.92;;;20.27;45.23
68928;BME280;56126;54.086;18.796;2024-02-26T02:58:19;100189.91;;;20.26;45.13
68928;BME280;56126;54.086;18.796;2024-02-26T03:01:06;100192.92;;;20.26;45.18
68928;BME280;56126;54.086;18.796;2024-02-26T03:03:53;100196.14;;;20.25;45.14
68928;BME280;56126;54.086;18.796;2024-02-26T03:06:41;100193.85;;;20.24;45.13
68928;BME280;56126;54.086;18.796;2024-02-26T03:09:28;100194.48;;;20.23;45.01
68928;BME280;56126;54.086;18.796;2024-02-26T03:12:16;100191.40;;;20.23;45.01
68928;BME280;56126;54.086;18.796;2024-02-26T03:15:03;100185.56;;;20.22;44.92
68928;BME280;56126;54.086;18.796;2024-02-26T03:17:53;100183.56;;;20.22;44.92
68928;BME280;56126;54.086;18.796;2024-02-26T03:20:40;100182.87;;;20.22;44.88
68928;BME280;56126;54.086;18.796;2024-02-26T03:23:27;100188.62;;;20.21;44.85
68928;BME280;56126;54.086;18.796;2024-02-26T03:26:16;100194.58;;;20.20;44.81
68928;BME280;56126;54.086;18.796;2024-02-26T03:29:04;100191.40;;;20.19;44.72
68928;BME280;56126;54.086;18.796;2024-02-26T03:31:51;100193.62;;;20.17;44.65
68928;BME280;56126;54.086;18.796;2024-02-26T03:34:38;100196.20;;;20.17;44.66
68928;BME280;56126;54.086;18.796;2024-02-26T03:37:27;100194.27;;;20.17;44.46
68928;BME280;56126;54.086;18.796;2024-02-26T03:40:13;100197.52;;;20.16;44.37
68928;BME280;56126;54.086;18.796;2024-02-26T03:43:02;100192.26;;;20.15;44.35
68928;BME280;56126;54.086;18.796;2024-02-26T03:45:49;100194.02;;;20.14;44.34
68928;BME280;56126;54.086;18.796;2024-02-26T03:48:36;100196.68;;;20.13;44.34
68928;BME280;56126;54.086;18.796;2024-02-26T03:51:24;100189.43;;;20.12;44.21
68928;BME280;56126;54.086;18.796;2024-02-26T03:54:11;100190.80;;;20.11;44.20
68928;BME280;56126;54.086;18.796;2024-02-26T03:56:58;100189.77;;;20.11;44.16
68928;BME280;56126;54.086;18.796;2024-02-26T03:59:45;100188.90;;;20.10;44.13
68928;BME280;56126;54.086;18.796;2024-02-26T04:02:32;100193.91;;;20.10;44.11
68928;BME280;56126;54.086;18.796;2024-02-26T04:05:19;100195.87;;;20.09;44.01
68928;BME280;56126;54.086;18.796;2024-02-26T04:08:06;100194.31;;;20.08;44.13
68928;BME280;56126;54.086;18.796;2024-02-26T04:10:57;100198.73;;;20.08;43.96
68928;BME280;56126;54.086;18.796;2024-02-26T04:13:44;100200.83;;;20.07;43.88
68928;BME280;56126;54.086;18.796;2024-02-26T04:16:37;100198.77;;;20.05;43.93
68928;BME280;56126;54.086;18.796;2024-02-26T04:19:24;100202.85;;;20.05;43.84
68928;BME280;56126;54.086;18.796;2024-02-26T04:22:12;100202.60;;;20.04;43.74
68928;BME280;56126;54.086;18.796;2024-02-26T04:24:59;100208.95;;;20.03;43.71
68928;BME280;56126;54.086;18.796;2024-02-26T04:27:46;100211.43;;;20.02;43.64
68928;BME280;56126;54.086;18.796;2024-02-26T04:30:33;100210.81;;;20.01;43.56
68928;BME280;56126;54.086;18.796;2024-02-26T04:33:20;100211.84;;;20.00;43.58
68928;BME280;56126;54.086;18.796;2024-02-26T04:36:13;100211.36;;;20.00;43.39
68928;BME280;56126;54.086;18.796;2024-02-26T04:39:01;100212.27;;;19.98;43.42
68928;BME280;56126;54.086;18.796;2024-02-26T04:41:48;100215.32;;;19.97;43.40
68928;BME280;56126;54.086;18.796;2024-02-26T04:44:35;100221.28;;;19.96;43.25
68928;BME280;56126;54.086;18.796;2024-02-26T04:47:22;100224.42;;;19.96;43.31
68928;BME280;56126;54.086;18.796;2024-02-26T04:50:09;100224.66;;;19.96;43.27
68928;BME280;56126;54.086;18.796;2024-02-26T04:52:56;100232.63;;;19.96;43.22
68928;BME280;56126;54.086;18.796;2024-02-26T04:55:44;100236.83;;;19.94;42.97
68928;BME280;56126;54.086;18.796;2024-02-26T04:58:31;100237.13;;;19.93;42.84
68928;BME280;56126;54.086;18.796;2024-02-26T05:01:18;100236.95;;;19.93;42.91
68928;BME280;56126;54.086;18.796;2024-02-26T05:04:05;100237.45;;;19.92;42.74
68928;BME280;56126;54.086;18.796;2024-02-26T05:06:52;100237.56;;;19.90;42.80
68928;BME280;56126;54.086;18.796;2024-02-26T05:09:40;100240.95;;;19.89;42.64
68928;BME280;56126;54.086;18.796;2024-02-26T05:12:29;100242.15;;;19.88;42.51
68928;BME280;56126;54.086;18.796;2024-02-26T05:15:16;100239.85;;;19.88;42.47
68928;BME280;56126;54.086;18.796;2024-02-26T05:18:07;100235.92;;;19.86;42.36
68928;BME280;56126;54.086;18.796;2024-02-26T05:20:54;100236.71;;;19.86;42.38
68928;BME280;56126;54.086;18.796;2024-02-26T05:23:42;100235.30;;;19.85;42.47
68928;BME280;56126;54.086;18.796;2024-02-26T05:26:30;100232.14;;;19.86;42.48
68928;BME280;56126;54.086;18.796;2024-02-26T05:29:17;100235.78;;;19.86;42.50
68928;BME280;56126;54.086;18.796;2024-02-26T05:32:05;100237.61;;;19.86;42.50
68928;BME280;56126;54.086;18.796;2024-02-26T05:34:52;100241.65;;;19.86;42.58
68928;BME280;56126;54.086;18.796;2024-02-26T05:37:39;100246.34;;;19.87;42.85
68928;BME280;56126;54.086;18.796;2024-02-26T05:40:26;100251.76;;;19.88;42.96
68928;BME280;56126;54.086;18.796;2024-02-26T05:43:13;100256.41;;;19.89;42.97
68928;BME280;56126;54.086;18.796;2024-02-26T05:46:02;100256.45;;;19.91;43.46
68928;BME280;56126;54.086;18.796;2024-02-26T05:48:51;100261.08;;;19.93;43.67
68928;BME280;56126;54.086;18.796;2024-02-26T05:51:39;100260.59;;;19.94;43.82
68928;BME280;56126;54.086;18.796;2024-02-26T05:54:26;100258.86;;;19.94;43.73
68928;BME280;56126;54.086;18.796;2024-02-26T05:57:13;100256.80;;;19.95;43.86
68928;BME280;56126;54.086;18.796;2024-02-26T06:00:01;100260.22;;;19.95;43.94
68928;BME280;56126;54.086;18.796;2024-02-26T06:02:51;100264.02;;;19.96;44.01
68928;BME280;56126;54.086;18.796;2024-02-26T06:05:38;100267.84;;;19.96;44.07
68928;BME280;56126;54.086;18.796;2024-02-26T06:08:25;100269.69;;;19.96;44.16
68928;BME280;56126;54.086;18.796;2024-02-26T06:11:12;100272.91;;;19.95;44.16
68928;BME280;56126;54.086;18.796;2024-02-26T06:13:59;100276.95;;;19.95;44.31
68928;BME280;56126;54.086;18.796;2024-02-26T06:16:50;100283.23;;;19.95;44.50
68928;BME280;56126;54.086;18.796;2024-02-26T06:19:37;100286.13;;;19.96;44.32
68928;BME280;56126;54.086;18.796;2024-02-26T06:22:24;100290.71;;;19.96;44.57
68928;BME280;56126;54.086;18.796;2024-02-26T06:25:11;100294.10;;;19.97;44.52
68928;BME280;56126;54.086;18.796;2024-02-26T06:27:58;100296.86;;;19.97;44.63
68928;BME280;56126;54.086;18.796;2024-02-26T06:30:45;100293.34;;;19.97;44.58
68928;BME280;56126;54.086;18.796;2024-02-26T06:33:33;100295.75;;;19.97;44.59
68928;BME280;56126;54.086;18.796;2024-02-26T06:36:22;100299.45;;;19.97;44.67
68928;BME280;56126;54.086;18.796;2024-02-26T06:39:09;100298.38;;;19.96;44.65
68928;BME280;56126;54.086;18.796;2024-02-26T06:41:57;100299.77;;;19.97;44.70
68928;BME280;56126;54.086;18.796;2024-02-26T06:44:48;100305.33;;;20.00;44.84
68928;BME280;56126;54.086;18.796;2024-02-26T06:47:35;100310.23;;;20.02;44.83
68928;BME280;56126;54.086;18.796;2024-02-26T06:50:22;100316.42;;;20.03;44.84
68928;BME280;56126;54.086;18.796;2024-02-26T06:53:09;100321.25;;;20.04;44.93
68928;BME280;56126;54.086;18.796;2024-02-26T06:55:56;100322.44;;;20.05;44.97
68928;BME280;56126;54.086;18.796;2024-02-26T06:58:43;100315.58;;;20.06;44.95
68928;BME280;56126;54.086;18.796;2024-02-26T07:01:30;100316.58;;;20.07;44.97
68928;BME280;56126;54.086;18.796;2024-02-26T07:04:17;100317.77;;;20.08;44.93
68928;BME280;56126;54.086;18.796;2024-02-26T07:07:04;100322.17;;;20.08;45.00
68928;BME280;56126;54.086;18.796;2024-02-26T07:09:52;100328.73;;;20.09;45.00
68928;BME280;56126;54.086;18.796;2024-02-26T07:12:39;100332.08;;;20.09;45.06
68928;BME280;56126;54.086;18.796;2024-02-26T07:15:26;100340.95;;;20.08;45.09
68928;BME280;56126;54.086;18.796;2024-02-26T07:18:15;100344.27;;;20.08;45.05
68928;BME280;56126;54.086;18.796;2024-02-26T07:21:03;100347.60;;;20.08;45.08
68928;BME280;56126;54.086;18.796;2024-02-26T07:23:50;100349.77;;;20.06;45.03
68928;BME280;56126;54.086;18.796;2024-02-26T07:26:38;100349.61;;;20.06;45.07
68928;BME280;56126;54.086;18.796;2024-02-26T07:29:25;100350.77;;;20.05;45.04
68928;BME280;56126;54.086;18.796;2024-02-26T07:32:12;100349.58;;;20.04;45.07
68928;BME280;56126;54.086;18.796;2024-02-26T07:34:59;100351.06;;;20.04;45.09
68928;BME280;56126;54.086;18.796;2024-02-26T07:37:48;100355.75;;;20.03;45.04
68928;BME280;56126;54.086;18.796;2024-02-26T07:40:36;100350.61;;;20.03;45.03
68928;BME280;56126;54.086;18.796;2024-02-26T07:43:30;100345.73;;;20.03;45.14
68928;BME280;56126;54.086;18.796;2024-02-26T07:46:18;100347.19;;;20.03;45.05
68928;BME280;56126;54.086;18.796;2024-02-26T07:49:05;100347.01;;;20.03;45.09
68928;BME280;56126;54.086;18.796;2024-02-26T07:51:52;100352.18;;;20.03;45.14
68928;BME280;56126;54.086;18.796;2024-02-26T07:54:41;100356.81;;;20.02;45.12
68928;BME280;56126;54.086;18.796;2024-02-26T07:57:29;100358.09;;;20.02;45.23
68928;BME280;56126;54.086;18.796;2024-02-26T08:00:16;100360.91;;;20.02;45.14
68928;BME280;56126;54.086;18.796;2024-02-26T08:03:04;100362.23;;;20.01;45.11
68928;BME280;56126;54.086;18.796;2024-02-26T08:05:51;100365.39;;;20.01;45.20
68928;BME280;56126;54.086;18.796;2024-02-26T08:08:39;100365.95;;;20.01;45.14
68928;BME280;56126;54.086;18.796;2024-02-26T08:11:26;100369.50;;;20.01;45.14
68928;BME280;56126;54.086;18.796;2024-02-26T08:14:13;100374.84;;;20.01;45.10
68928;BME280;56126;54.086;18.796;2024-02-26T08:17:00;100380.36;;;20.00;45.10
68928;BME280;56126;54.086;18.796;2024-02-26T08:19:47;100381.16;;;20.00;45.21
68928;BME280;56126;54.086;18.796;2024-02-26T08:22:34;100385.22;;;20.00;45.18
68928;BME280;56126;54.086;18.796;2024-02-26T08:25:22;100385.19;;;20.00;45.18
68928;BME280;56126;54.086;18.796;2024-02-26T08:28:09;100390.71;;;20.00;45.16
68928;BME280;56126;54.086;18.796;2024-02-26T08:31:00;100390.60;;;19.99;45.19
68928;BME280;56126;54.086;18.796;2024-02-26T08:33:47;100397.02;;;19.99;45.24
68928;BME280;56126;54.086;18.796;2024-02-26T08:36:36;100400.48;;;20.00;45.34
68928;BME280;56126;54.086;18.796;2024-02-26T08:39:23;100402.16;;;20.00;45.16
68928;BME280;56126;54.086;18.796;2024-02-26T08:42:12;100404.54;;;20.00;45.28
68928;BME280;56126;54.086;18.796;2024-02-26T08:45:00;100409.92;;;19.99;45.19
68928;BME280;56126;54.086;18.796;2024-02-26T08:47:49;100412.65;;;20.00;45.24
68928;BME280;56126;54.086;18.796;2024-02-26T08:50:36;100415.58;;;20.00;45.29
68928;BME280;56126;54.086;18.796;2024-02-26T08:53:23;100415.10;;;19.99;45.09
68928;BME280;56126;54.086;18.796;2024-02-26T08:56:23;100415.61;;;19.99;45.28
68928;BME280;56126;54.086;18.796;2024-02-26T08:59:10;100416.90;;;19.99;45.23
68928;BME280;56126;54.086;18.796;2024-02-26T09:02:00;100419.27;;;20.00;45.21
68928;BME280;56126;54.086;18.796;2024-02-26T09:04:47;100421.14;;;19.99;45.25
68928;BME280;56126;54.086;18.796;2024-02-26T09:07:34;100417.81;;;20.00;45.20
68928;BME280;56126;54.086;18.796;2024-02-26T09:10:22;100417.16;;;19.99;45.22
68928;BME280;56126;54.086;18.796;2024-02-26T09:13:10;100420.86;;;19.99;45.21
68928;BME280;56126;54.086;18.796;2024-02-26T09:15:57;100425.72;;;19.99;45.19
68928;BME280;56126;54.086;18.796;2024-02-26T09:18:45;100431.27;;;19.99;45.16
68928;BME280;56126;54.086;18.796;2024-02-26T09:21:34;100437.46;;;20.00;45.19
68928;BME280;56126;54.086;18.796;2024-02-26T09:24:21;100439.70;;;20.00;45.26
68928;BME280;56126;54.086;18.796;2024-02-26T09:27:08;100442.45;;;20.00;45.27
68928;BME280;56126;54.086;18.796;2024-02-26T09:29:55;100443.91;;;20.00;45.11
68928;BME280;56126;54.086;18.796;2024-02-26T09:32:46;100446.67;;;20.00;45.34
68928;BME280;56126;54.086;18.796;2024-02-26T09:35:34;100441.35;;;20.00;45.28
68928;BME280;56126;54.086;18.796;2024-02-26T09:38:21;100439.11;;;20.00;45.34
68928;BME280;56126;54.086;18.796;2024-02-26T09:41:14;100437.87;;;19.99;45.33
68928;BME280;56126;54.086;18.796;2024-02-26T09:44:02;100437.14;;;19.99;45.32
68928;BME280;56126;54.086;18.796;2024-02-26T09:46:50;100436.77;;;19.99;45.32
68928;BME280;56126;54.086;18.796;2024-02-26T09:49:39;100437.77;;;20.01;45.37
68928;BME280;56126;54.086;18.796;2024-02-26T09:52:28;100434.89;;;20.00;45.39
68928;BME280;56126;54.086;18.796;2024-02-26T09:55:16;100440.18;;;20.00;45.40
68928;BME280;56126;54.086;18.796;2024-02-26T09:58:05;100447.16;;;20.00;45.37
68928;BME280;56126;54.086;18.796;2024-02-26T10:00:56;100447.64;;;20.01;45.38
68928;BME280;56126;54.086;18.796;2024-02-26T10:03:48;100449.14;;;20.01;45.39
68928;BME280;56126;54.086;18.796;2024-02-26T10:06:41;100456.26;;;20.01;45.44
68928;BME280;56126;54.086;18.796;2024-02-26T10:09:31;100459.37;;;20.01;45.42
68928;BME280;56126;54.086;18.796;2024-02-26T10:12:19;100460.23;;;20.02;45.39
68928;BME280;56126;54.086;18.796;2024-02-26T10:15:07;100464.65;;;20.02;45.43
68928;BME280;56126;54.086;18.796;2024-02-26T10:17:55;100460.23;;;20.02;45.48
68928;BME280;56126;54.086;18.796;2024-02-26T10:20:58;100463.14;;;20.02;45.43
68928;BME280;56126;54.086;18.796;2024-02-26T10:23:45;100463.84;;;20.03;45.48
68928;BME280;56126;54.086;18.796;2024-02-26T10:26:34;100462.34;;;20.03;45.56
68928;BME280;56126;54.086;18.796;2024-02-26T10:29:23;100460.30;;;20.03;45.46
68928;BME280;56126;54.086;18.796;2024-02-26T10:32:10;100464.90;;;20.03;45.58
68928;BME280;56126;54.086;18.796;2024-02-26T10:34:57;100464.52;;;20.03;45.61
68928;BME280;56126;54.086;18.796;2024-02-26T10:37:46;100463.63;;;20.03;45.64
68928;BME280;56126;54.086;18.796;2024-02-26T10:40:33;100467.29;;;20.03;45.54
68928;BME280;56126;54.086;18.796;2024-02-26T10:43:20;100464.39;;;20.03;45.65
68928;BME280;56126;54.086;18.796;2024-02-26T10:46:08;100464.70;;;20.03;45.55
68928;BME280;56126;54.086;18.796;2024-02-26T10:48:55;100471.84;;;20.04;45.61
68928;BME280;56126;54.086;18.796;2024-02-26T10:51:45;100475.70;;;20.04;45.70
68928;BME280;56126;54.086;18.796;2024-02-26T10:54:34;100475.64;;;20.04;45.66
68928;BME280;56126;54.086;18.796;2024-02-26T10:57:24;100468.61;;;20.05;45.59
68928;BME280;56126;54.086;18.796;2024-02-26T11:00:16;100463.64;;;20.05;45.70
68928;BME280;56126;54.086;18.796;2024-02-26T11:03:04;100467.96;;;20.05;45.70
68928;BME280;56126;54.086;18.796;2024-02-26T11:05:53;100467.94;;;20.06;45.81
68928;BME280;56126;54.086;18.796;2024-02-26T11:08:41;100473.59;;;20.06;45.66
68928;BME280;56126;54.086;18.796;2024-02-26T11:11:30;100471.52;;;20.07;45.64
68928;BME280;56126;54.086;18.796;2024-02-26T11:14:18;100474.20;;;20.08;45.75
68928;BME280;56126;54.086;18.796;2024-02-26T11:17:07;100472.71;;;20.08;45.72
68928;BME280;56126;54.086;18.796;2024-02-26T11:19:59;100470.44;;;20.09;45.68
68928;BME280;56126;54.086;18.796;2024-02-26T11:22:46;100467.68;;;20.09;45.86
68928;BME280;56126;54.086;18.796;2024-02-26T11:25:35;100463.92;;;20.09;45.68
68928;BME280;56126;54.086;18.796;2024-02-26T11:28:24;100466.03;;;20.10;45.71
68928;BME280;56126;54.086;18.796;2024-02-26T11:31:12;100466.55;;;20.11;45.69
68928;BME280;56126;54.086;18.796;2024-02-26T11:34:00;100462.24;;;20.11;45.64
68928;BME280;56126;54.086;18.796;2024-02-26T11:36:50;100462.17;;;20.12;45.72
68928;BME280;56126;54.086;18.796;2024-02-26T11:39:40;100463.42;;;20.12;45.75
68928;BME280;56126;54.086;18.796;2024-02-26T11:42:27;100464.09;;;20.13;45.84
68928;BME280;56126;54.086;18.796;2024-02-26T11:48:29;100458.27;;;20.14;45.82
68928;BME280;56126;54.086;18.796;2024-02-26T11:51:16;100466.30;;;20.14;45.84
68928;BME280;56126;54.086;18.796;2024-02-26T11:54:04;100461.65;;;20.15;45.88
68928;BME280;56126;54.086;18.796;2024-02-26T11:56:51;100466.21;;;20.15;45.87
68928;BME280;56126;54.086;18.796;2024-02-26T11:59:39;100470.21;;;20.16;45.86
68928;BME280;56126;54.086;18.796;2024-02-26T12:02:41;100479.77;;;20.16;45.91
68928;BME280;56126;54.086;18.796;2024-02-26T12:05:33;100484.55;;;20.16;45.91
68928;BME280;56126;54.086;18.796;2024-02-26T12:08:21;100485.77;;;20.17;45.89
68928;BME280;56126;54.086;18.796;2024-02-26T12:11:15;100482.15;;;20.16;45.92
68928;BME280;56126;54.086;18.796;2024-02-26T12:14:03;100481.39;;;20.16;45.88
68928;BME280;56126;54.086;18.796;2024-02-26T12:16:51;100476.91;;;20.17;45.97
68928;BME280;56126;54.086;18.796;2024-02-26T12:19:39;100474.84;;;20.17;45.97
68928;BME280;56126;54.086;18.796;2024-02-26T12:22:30;100469.81;;;20.18;46.04
68928;BME280;56126;54.086;18.796;2024-02-26T12:25:20;100465.23;;;20.19;45.97
68928;BME280;56126;54.086;18.796;2024-02-26T12:28:09;100459.02;;;20.21;45.92
68928;BME280;56126;54.086;18.796;2024-02-26T12:30:58;100460.16;;;20.23;45.98
68928;BME280;56126;54.086;18.796;2024-02-26T12:33:47;100457.84;;;20.24;45.96
68928;BME280;56126;54.086;18.796;2024-02-26T12:36:34;100460.69;;;20.25;45.92
68928;BME280;56126;54.086;18.796;2024-02-26T12:39:21;100466.66;;;20.25;45.88
68928;BME280;56126;54.086;18.796;2024-02-26T12:42:09;100472.85;;;20.26;46.00
68928;BME280;56126;54.086;18.796;2024-02-26T12:44:57;100476.75;;;20.28;45.92
68928;BME280;56126;54.086;18.796;2024-02-26T12:47:45;100484.73;;;20.29;46.00
68928;BME280;56126;54.086;18.796;2024-02-26T12:50:38;100489.61;;;20.29;45.94
68928;BME280;56126;54.086;18.796;2024-02-26T12:53:26;100488.48;;;20.31;45.84
68928;BME280;56126;54.086;18.796;2024-02-26T12:56:14;100498.40;;;20.33;45.94
68928;BME280;56126;54.086;18.796;2024-02-26T12:59:01;100505.23;;;20.35;45.86
68928;BME280;56126;54.086;18.796;2024-02-26T13:01:49;100505.73;;;20.37;45.92
68928;BME280;56126;54.086;18.796;2024-02-26T13:04:36;100505.41;;;20.39;45.89
68928;BME280;56126;54.086;18.796;2024-02-26T13:07:24;100506.43;;;20.41;45.78
68928;BME280;56126;54.086;18.796;2024-02-26T13:10:11;100503.13;;;20.43;45.74
68928;BME280;56126;54.086;18.796;2024-02-26T13:13:02;100502.83;;;20.44;45.84
68928;BME280;56126;54.086;18.796;2024-02-26T13:15:49;100499.75;;;20.45;45.77
68928;BME280;56126;54.086;18.796;2024-02-26T13:18:36;100493.79;;;20.46;45.77
68928;BME280;56126;54.086;18.796;2024-02-26T13:21:26;100492.45;;;20.46;45.71
68928;BME280;56126;54.086;18.796;2024-02-26T13:24:15;100492.01;;;20.47;45.64
68928;BME280;56126;54.086;18.796;2024-02-26T13:27:04;100491.14;;;20.48;45.71
68928;BME280;56126;54.086;18.796;2024-02-26T13:32:54;100483.02;;;20.48;45.80
68928;BME280;56126;54.086;18.796;2024-02-26T13:35:41;100480.46;;;20.48;45.77
68928;BME280;56126;54.086;18.796;2024-02-26T13:38:29;100482.54;;;20.48;45.77
68928;BME280;56126;54.086;18.796;2024-02-26T13:41:16;100485.63;;;20.48;45.77
68928;BME280;56126;54.086;18.796;2024-02-26T13:44:03;100487.27;;;20.48;45.76
68928;BME280;56126;54.086;18.796;2024-02-26T13:46:50;100483.84;;;20.48;45.81
68928;BME280;56126;54.086;18.796;2024-02-26T13:49:37;100487.34;;;20.48;45.75
68928;BME280;56126;54.086;18.796;2024-02-26T13:52:25;100487.21;;;20.47;45.84
68928;BME280;56126;54.086;18.796;2024-02-26T13:55:13;100492.83;;;20.46;45.81
68928;BME280;56126;54.086;18.796;2024-02-26T13:58:01;100494.55;;;20.46;45.79
68928;BME280;56126;54.086;18.796;2024-02-26T14:00:49;100499.41;;;20.45;45.84
68928;BME280;56126;54.086;18.796;2024-02-26T14:03:36;100496.67;;;20.45;45.80
68928;BME280;56126;54.086;18.796;2024-02-26T14:06:24;100495.58;;;20.45;45.89
68928;BME280;56126;54.086;18.796;2024-02-26T14:09:11;100499.99;;;20.45;45.82
68928;BME280;56126;54.086;18.796;2024-02-26T14:12:06;100497.44;;;20.44;45.84
68928;BME280;56126;54.086;18.796;2024-02-26T14:14:53;100498.95;;;20.44;45.92
68928;BME280;56126;54.086;18.796;2024-02-26T14:17:42;100499.79;;;20.43;45.91
68928;BME280;56126;54.086;18.796;2024-02-26T14:20:31;100498.29;;;20.43;45.91
68928;BME280;56126;54.086;18.796;2024-02-26T14:23:18;100506.10;;;20.43;46.01
68928;BME280;56126;54.086;18.796;2024-02-26T14:26:07;100503.19;;;20.42;45.89
68928;BME280;56126;54.086;18.796;2024-02-26T14:28:54;100506.02;;;20.42;46.00
68928;BME280;56126;54.086;18.796;2024-02-26T14:31:41;100501.89;;;20.42;46.35
68928;BME280;56126;54.086;18.796;2024-02-26T14:34:31;100494.15;;;20.44;46.17